Time;durP1;ratioP1;P1;durP2;ratioP2;P2;SDS_P1;SDS_P2;PMS_P1;PMS_P2;Temp;Humidity;BMP_temperature;BMP_pressure;BME280_temperature;BME280_humidity;BME280_pressure;Samples;Min_cycle;Max_cycle;Signal;HPM_P1;HPM_P2
2024/03/12 00:00:23;;;;;;;2.70;2.50;;;11.00;1.00;;;;;;5119908;28;20187;-43
2024/03/12 00:02:50;;;;;;;3.03;2.70;;;11.50;1.00;;;;;;5120516;28;20425;-42
2024/03/12 00:05:19;;;;;;;4.23;3.30;;;12.00;1.00;;;;;;5101460;28;20441;-42
2024/03/12 00:07:49;;;;;;;4.70;3.23;;;12.50;99.90;;;;;;5119144;28;20700;-40
2024/03/12 00:10:19;;;;;;;3.57;3.27;;;12.90;1.00;;;;;;5100692;28;20434;-45
2024/03/12 00:12:50;;;;;;;3.40;3.10;;;13.20;99.90;;;;;;5099057;28;20456;-45
2024/03/12 00:15:19;;;;;;;3.40;3.03;;;13.40;1.00;;;;;;5099472;28;20528;-41
2024/03/12 00:17:46;;;;;;;3.57;3.10;;;13.60;99.90;;;;;;5098548;28;20453;-42
2024/03/12 00:20:24;;;;;;;3.87;2.97;;;13.80;99.90;;;;;;5098983;28;20433;-41
2024/03/12 00:22:50;;;;;;;3.57;2.63;;;13.90;99.90;;;;;;5099375;28;20494;-41
2024/03/12 00:25:20;;;;;;;3.50;3.17;;;14.00;98.50;;;;;;5081107;28;20446;-40
2024/03/12 00:27:47;;;;;;;3.90;3.10;;;14.10;33.90;;;;;;5080482;28;20465;-42
2024/03/12 00:30:14;;;;;;;2.73;2.40;;;14.20;2.10;;;;;;5099265;28;20541;-42
2024/03/12 00:32:40;;;;;;;3.90;2.87;;;14.30;1.00;;;;;;5080779;28;21022;-42
2024/03/12 00:35:10;;;;;;;4.27;2.80;;;14.30;1.00;;;;;;5098605;28;20847;-42
2024/03/12 00:37:38;;;;;;;3.47;3.17;;;14.30;1.00;;;;;;5081393;28;20422;-44
2024/03/12 00:40:14;;;;;;;3.63;3.00;;;14.30;1.00;;;;;;5099524;28;20820;-44
2024/03/12 00:42:40;;;;;;;5.60;3.30;;;14.40;1.00;;;;;;5098893;28;20422;-41
2024/03/12 00:45:13;;;;;;;3.40;3.10;;;14.40;1.00;;;;;;5098711;28;20423;-44
2024/03/12 00:47:40;;;;;;;4.30;3.13;;;14.40;1.00;;;;;;5099023;28;20422;-42
2024/03/12 00:50:11;;;;;;;3.57;3.27;;;14.40;1.00;;;;;;5064212;28;20437;-41
2024/03/12 00:52:37;;;;;;;3.60;3.00;;;14.40;1.00;;;;;;5099056;28;20423;-43
2024/03/12 00:55:09;;;;;;;3.30;2.90;;;14.40;1.00;;;;;;5080456;28;20882;-40
2024/03/12 00:57:35;;;;;;;3.10;2.80;;;14.20;1.00;;;;;;5098675;28;20531;-42
2024/03/12 01:00:16;;;;;;;3.40;3.10;;;13.70;1.00;;;;;;5115383;28;20445;-41
2024/03/12 01:02:44;;;;;;;3.47;3.17;;;13.20;1.00;;;;;;5118778;28;20421;-43
2024/03/12 01:05:12;;;;;;;3.40;3.10;;;12.70;1.00;;;;;;5118618;28;20573;-41
2024/03/12 01:07:38;;;;;;;4.00;3.33;;;12.20;1.00;;;;;;5084075;28;20758;-41
2024/03/12 01:10:05;;;;;;;3.30;2.97;;;11.80;1.00;;;;;;5118638;28;20485;-43
2024/03/12 01:12:33;;;;;;;3.30;3.00;;;11.50;1.00;;;;;;5100061;28;20439;-42
2024/03/12 01:14:58;;;;;;;3.67;3.33;;;11.20;1.00;;;;;;5117880;28;20448;-41
2024/03/12 01:17:24;;;;;;;4.60;3.53;;;10.90;1.00;;;;;;5117618;28;20417;-46
2024/03/12 01:19:50;;;;;;;4.00;3.10;;;10.70;1.00;;;;;;5117924;28;20178;-41
2024/03/12 01:22:15;;;;;;;4.80;3.60;;;10.50;1.00;;;;;;5117657;28;20168;-42
2024/03/12 01:24:41;;;;;;;3.37;3.07;;;10.30;1.00;;;;;;5099513;28;20184;-41
2024/03/12 01:27:07;;;;;;;3.50;3.20;;;10.10;1.00;;;;;;5099124;28;20202;-41
2024/03/12 01:29:33;;;;;;;4.43;3.23;;;10.00;1.00;;;;;;5116954;28;20175;-42
2024/03/12 01:31:59;;;;;;;3.33;3.03;;;9.90;1.00;;;;;;5117804;28;20197;-41
2024/03/12 01:34:25;;;;;;;3.30;2.97;;;9.80;28.70;;;;;;5118384;28;20478;-41
2024/03/12 01:36:53;;;;;;;4.27;3.20;;;9.60;94.90;;;;;;5100676;28;20472;-41
2024/03/12 01:39:25;;;;;;;5.77;3.70;;;9.60;99.90;;;;;;5117987;28;20520;-40
2024/03/12 01:41:53;;;;;;;3.70;3.40;;;9.50;99.90;;;;;;5100799;28;20429;-41
2024/03/12 01:44:20;;;;;;;3.57;3.23;;;9.40;99.90;;;;;;5099314;28;20569;-42
2024/03/12 01:46:46;;;;;;;3.13;2.80;;;9.30;99.90;;;;;;5117365;28;20492;-41
2024/03/12 01:49:13;;;;;;;4.00;3.00;;;9.20;1.00;;;;;;5117514;28;20422;-42
2024/03/12 01:51:39;;;;;;;3.43;2.93;;;9.20;1.00;;;;;;5117593;28;20497;-42
2024/03/12 01:54:04;;;;;;;3.73;3.27;;;9.10;1.00;;;;;;5097855;28;20914;-42
2024/03/12 01:56:31;;;;;;;4.60;3.17;;;9.10;1.00;;;;;;5116666;28;20565;-40
2024/03/12 01:58:57;;;;;;;3.70;3.00;;;9.00;1.00;;;;;;5116902;28;20449;-42
2024/03/12 02:01:24;;;;;;;3.73;2.63;;;9.00;10.50;;;;;;5117218;28;20413;-41
2024/03/12 02:03:51;;;;;;;3.17;2.87;;;8.90;33.40;;;;;;5117626;28;20428;-40
2024/03/12 02:06:22;;;;;;;2.40;2.20;;;8.90;77.80;;;;;;5117216;28;20436;-41
2024/03/12 02:08:52;;;;;;;3.33;2.83;;;8.80;99.90;;;;;;5118073;28;20786;-41
2024/03/12 02:11:19;;;;;;;2.90;2.60;;;8.80;99.90;;;;;;5100177;28;20520;-41
2024/03/12 02:13:45;;;;;;;2.83;2.53;;;8.70;99.90;;;;;;5118377;28;20421;-40
2024/03/12 02:16:11;;;;;;;3.33;2.70;;;8.70;99.90;;;;;;5117688;28;20461;-42
2024/03/12 02:18:52;;;;;;;2.63;2.43;;;8.70;99.90;;;;;;5117421;28;20442;-41
2024/03/12 02:21:18;;;;;;;3.73;2.53;;;8.60;99.90;;;;;;5118171;28;20445;-42
2024/03/12 02:23:43;;;;;;;3.57;3.27;;;8.60;99.90;;;;;;5118957;28;20179;-41
2024/03/12 02:26:09;;;;;;;3.43;2.70;;;8.50;99.90;;;;;;5118541;28;20280;-42
2024/03/12 02:28:38;;;;;;;3.57;2.90;;;8.50;1.00;;;;;;5118160;28;20179;-43
2024/03/12 02:31:05;;;;;;;6.13;3.50;;;8.50;1.00;;;;;;5117895;28;20425;-41
2024/03/12 02:33:32;;;;;;;3.00;2.67;;;8.50;1.00;;;;;;5117880;28;20754;-41
2024/03/12 02:35:58;;;;;;;3.50;3.17;;;8.40;1.00;;;;;;5117624;28;20425;-42
2024/03/12 02:38:26;;;;;;;2.80;2.47;;;8.40;1.00;;;;;;5118218;28;20429;-41
2024/03/12 02:40:51;;;;;;;2.90;2.60;;;8.40;1.00;;;;;;5117968;28;20410;-42
2024/03/12 02:43:17;;;;;;;4.57;2.70;;;8.40;1.00;;;;;;5118381;28;20500;-42
2024/03/12 02:45:43;;;;;;;3.40;2.90;;;8.30;85.90;;;;;;5099299;28;20624;-41
2024/03/12 02:48:09;;;;;;;4.00;3.60;;;8.30;99.90;;;;;;5118008;28;20184;-41
2024/03/12 02:50:36;;;;;;;3.67;3.27;;;8.30;99.90;;;;;;5117894;28;20855;-43
2024/03/12 02:53:02;;;;;;;2.90;2.60;;;8.30;99.90;;;;;;5121229;28;20228;-43
2024/03/12 02:55:28;;;;;;;2.77;2.33;;;8.20;99.90;;;;;;5121384;28;20724;-40
2024/03/12 02:57:53;;;;;;;3.90;2.87;;;8.20;99.90;;;;;;5121246;28;20480;-41
2024/03/12 03:00:19;;;;;;;3.43;3.07;;;8.20;1.00;;;;;;5121481;28;20299;-41
2024/03/12 03:02:45;;;;;;;3.20;2.97;;;8.20;1.00;;;;;;5121277;28;20207;-41
2024/03/12 03:05:13;;;;;;;2.77;2.53;;;8.20;1.00;;;;;;5102283;28;20836;-42
2024/03/12 03:07:41;;;;;;;3.37;3.00;;;8.20;1.00;;;;;;5120649;28;20512;-40
2024/03/12 03:10:09;;;;;;;2.60;2.40;;;8.20;1.00;;;;;;5121018;28;20440;-42
2024/03/12 03:12:35;;;;;;;2.90;2.53;;;8.20;52.10;;;;;;5120019;28;20843;-40
2024/03/12 03:15:01;;;;;;;3.00;2.73;;;8.20;99.90;;;;;;5120402;28;20494;-44
2024/03/12 03:17:27;;;;;;;3.13;2.83;;;8.20;99.90;;;;;;5102682;28;20176;-41
2024/03/12 03:19:52;;;;;;;3.00;2.67;;;8.20;99.90;;;;;;5120468;28;20425;-41
2024/03/12 03:22:18;;;;;;;2.60;2.40;;;8.20;99.90;;;;;;5120726;28;20190;-42
2024/03/12 03:24:43;;;;;;;3.27;2.80;;;8.30;1.00;;;;;;5120895;28;20192;-42
2024/03/12 03:27:09;;;;;;;3.20;2.77;;;8.30;1.00;;;;;;5120556;28;20227;-45
2024/03/12 03:29:36;;;;;;;4.90;3.07;;;8.30;1.00;;;;;;5120641;28;20180;-43
2024/03/12 03:32:02;;;;;;;3.57;3.07;;;8.30;1.00;;;;;;5103143;28;20429;-41
2024/03/12 03:34:29;;;;;;;2.60;2.40;;;8.30;1.00;;;;;;5121251;28;20418;-42
2024/03/12 03:36:58;;;;;;;3.30;2.97;;;8.30;1.00;;;;;;5119282;28;20428;-42
2024/03/12 03:39:26;;;;;;;3.13;2.83;;;8.40;1.00;;;;;;5119930;28;20440;-44
2024/03/12 03:41:55;;;;;;;3.50;2.70;;;8.40;1.00;;;;;;5120078;28;20417;-43
2024/03/12 03:44:23;;;;;;;4.37;3.10;;;8.40;1.00;;;;;;5119207;28;20452;-43
2024/03/12 03:46:49;;;;;;;3.97;3.00;;;8.40;99.90;;;;;;5119490;28;20457;-43
2024/03/12 03:49:15;;;;;;;3.40;3.10;;;8.40;99.90;;;;;;5119671;28;20720;-41
2024/03/12 03:51:41;;;;;;;3.30;3.00;;;8.40;99.90;;;;;;5120186;28;20522;-42
2024/03/12 03:57:28;;;;;;;3.13;2.83;;;8.40;99.90;;;;;;5119734;28;20893;-43
2024/03/12 03:59:56;;;;;;;2.60;2.40;;;8.40;99.90;;;;;;5118594;28;20504;-41
2024/03/12 04:02:22;;;;;;;5.50;3.20;;;8.40;99.90;;;;;;5118492;28;20222;-41
2024/03/12 04:04:49;;;;;;;3.73;2.83;;;8.50;99.90;;;;;;5119249;28;20433;-41
2024/03/12 04:07:15;;;;;;;3.57;2.90;;;8.50;99.90;;;;;;5118850;28;20299;-43
2024/03/12 04:09:41;;;;;;;3.43;3.00;;;8.50;99.90;;;;;;5118747;28;20421;-42
2024/03/12 04:12:07;;;;;;;3.30;3.00;;;8.50;83.70;;;;;;5118931;28;20525;-42
2024/03/12 04:14:33;;;;;;;2.40;2.20;;;8.60;17.10;;;;;;5118364;28;20406;-40
2024/03/12 04:17:01;;;;;;;3.03;2.50;;;8.60;1.00;;;;;;5118977;28;20629;-43
2024/03/12 04:19:32;;;;;;;3.50;2.97;;;8.60;1.00;;;;;;5118977;28;20187;-41
2024/03/12 04:21:58;;;;;;;3.77;3.00;;;8.60;1.00;;;;;;5119566;28;20479;-41
2024/03/12 04:24:25;;;;;;;3.10;2.60;;;8.60;1.00;;;;;;5118814;28;20475;-41
2024/03/12 04:26:54;;;;;;;3.10;2.90;;;8.60;99.90;;;;;;5118420;28;20449;-41
2024/03/12 04:29:20;;;;;;;3.10;2.50;;;8.60;99.90;;;;;;5118518;28;20796;-42
2024/03/12 04:31:45;;;;;;;3.33;2.63;;;8.60;99.90;;;;;;5117077;28;20425;-41
2024/03/12 04:34:11;;;;;;;3.77;2.60;;;8.60;99.90;;;;;;5099050;28;20562;-42
2024/03/12 04:36:36;;;;;;;6.20;3.23;;;8.60;99.90;;;;;;5117247;28;20361;-42
2024/03/12 04:41:47;;;;;;;2.67;2.47;;;8.60;99.90;;;;;;5116723;28;20175;-42
2024/03/12 04:44:13;;;;;;;2.87;2.37;;;8.60;95.30;;;;;;5116528;28;20920;-42
2024/03/12 04:46:43;;;;;;;2.67;2.40;;;8.60;1.00;;;;;;5116319;28;20485;-41
2024/03/12 04:49:09;;;;;;;2.67;2.47;;;8.60;1.00;;;;;;5117801;28;20554;-41
2024/03/12 04:51:34;;;;;;;3.03;2.73;;;8.60;1.00;;;;;;5116909;28;20424;-41
2024/03/12 04:54:00;;;;;;;3.50;2.63;;;8.60;1.00;;;;;;5116435;28;20247;-42
2024/03/12 04:56:26;;;;;;;3.70;3.03;;;8.60;1.00;;;;;;5099183;28;20198;-43
2024/03/12 04:58:51;;;;;;;3.17;2.87;;;8.60;1.00;;;;;;5117616;28;20292;-43
2024/03/12 05:01:17;;;;;;;4.33;3.20;;;8.60;1.00;;;;;;5118253;28;20202;-41
2024/03/12 05:03:44;;;;;;;3.83;3.33;;;8.60;1.00;;;;;;5117797;28;20248;-42
2024/03/12 05:06:10;;;;;;;3.00;2.70;;;8.60;1.00;;;;;;5099603;28;20469;-42
2024/03/12 05:08:35;;;;;;;3.40;3.10;;;8.60;1.00;;;;;;5118060;28;20657;-41
2024/03/12 05:11:01;;;;;;;6.17;2.87;;;8.60;1.00;;;;;;5100165;28;20175;-43
2024/03/12 05:13:27;;;;;;;3.97;2.57;;;8.60;1.00;;;;;;5098323;28;20250;-45
2024/03/12 05:15:53;;;;;;;4.53;2.70;;;8.60;1.00;;;;;;5097729;28;20180;-44
2024/03/12 05:18:18;;;;;;;5.00;2.83;;;8.60;1.00;;;;;;5098246;28;20185;-40
2024/03/12 05:20:44;;;;;;;2.63;2.40;;;8.60;1.00;;;;;;5097872;28;20432;-41
2024/03/12 05:23:10;;;;;;;2.97;2.77;;;8.70;1.00;;;;;;5097955;28;20249;-41
2024/03/12 05:25:39;;;;;;;2.60;2.40;;;8.70;1.00;;;;;;5097499;28;20554;-42
2024/03/12 05:28:08;;;;;;;3.03;2.70;;;8.70;1.00;;;;;;5114199;28;20433;-42
2024/03/12 05:30:37;;;;;;;3.63;2.60;;;8.70;1.00;;;;;;5116293;28;20420;-41
2024/03/12 05:33:10;;;;;;;4.30;3.00;;;8.70;36.40;;;;;;5096975;28;20416;-41
2024/03/12 05:35:38;;;;;;;2.90;2.60;;;8.70;45.00;;;;;;5096969;28;20406;-41
2024/03/12 05:38:10;;;;;;;3.30;3.00;;;8.70;96.40;;;;;;5097259;28;20427;-41
2024/03/12 05:40:42;;;;;;;7.00;3.53;;;8.70;99.90;;;;;;5096579;28;20773;-43
2024/03/12 05:48:40;;;;;;;4.37;3.67;;;8.70;99.90;;;;;;5096751;28;20420;-43
2024/03/12 05:51:07;;;;;;;4.40;4.00;;;8.70;99.90;;;;;;5097513;28;20422;-43
2024/03/12 05:53:37;;;;;;;3.30;2.90;;;8.80;99.90;;;;;;5096226;28;20430;-42
2024/03/12 05:56:07;;;;;;;3.10;2.70;;;8.80;99.90;;;;;;5097110;28;20422;-42
2024/03/12 05:58:32;;;;;;;4.13;3.37;;;8.80;99.90;;;;;;5094592;28;20478;-42
2024/03/12 06:00:58;;;;;;;3.00;2.80;;;8.80;99.90;;;;;;5096428;28;20498;-43
2024/03/12 06:03:24;;;;;;;3.40;3.10;;;8.90;99.90;;;;;;5096090;28;20591;-43
2024/03/12 06:05:50;;;;;;;3.07;2.77;;;8.80;99.90;;;;;;5096048;28;20470;-44
2024/03/12 06:08:15;;;;;;;3.60;2.70;;;8.90;99.90;;;;;;5111930;28;20180;-42
2024/03/12 06:10:41;;;;;;;3.60;2.87;;;8.90;99.90;;;;;;5115840;28;20180;-43
2024/03/12 06:13:07;;;;;;;3.03;2.70;;;8.90;99.90;;;;;;5117033;28;20279;-44
2024/03/12 06:15:32;;;;;;;3.60;2.93;;;9.00;99.90;;;;;;5112175;28;20506;-42
2024/03/12 06:18:00;;;;;;;5.43;3.10;;;9.00;99.90;;;;;;5104102;28;20176;-42
2024/03/12 06:20:28;;;;;;;2.60;2.40;;;9.00;99.90;;;;;;5097133;28;20515;-41
2024/03/12 06:22:54;;;;;;;3.60;2.80;;;9.00;99.90;;;;;;5094979;28;20433;-43
2024/03/12 06:25:19;;;;;;;3.43;3.00;;;9.10;99.90;;;;;;5094005;28;20466;-42
2024/03/12 06:27:48;;;;;;;2.70;2.50;;;9.10;99.90;;;;;;5104045;28;20473;-44
2024/03/12 06:30:16;;;;;;;3.50;3.20;;;9.10;99.90;;;;;;5120930;28;20248;-43
2024/03/12 06:32:46;;;;;;;3.30;2.70;;;9.20;99.90;;;;;;5119910;28;20409;-43
2024/03/12 06:35:12;;;;;;;3.13;2.83;;;9.20;99.90;;;;;;5119044;28;20517;-42
2024/03/12 06:37:38;;;;;;;2.53;2.33;;;9.30;99.90;;;;;;5119054;28;20508;-43
2024/03/12 06:40:06;;;;;;;3.90;2.77;;;9.30;12.80;;;;;;5120835;28;20589;-42
2024/03/12 06:42:32;;;;;;;3.47;3.17;;;9.30;1.00;;;;;;5119481;28;20176;-43
2024/03/12 06:45:00;;;;;;;2.70;2.17;;;9.40;1.00;;;;;;5119378;28;20406;-43
2024/03/12 06:47:26;;;;;;;3.20;2.57;;;9.40;1.00;;;;;;5118785;28;20167;-45
2024/03/12 06:49:52;;;;;;;3.47;3.10;;;9.50;1.00;;;;;;5118342;28;20674;-41
2024/03/12 06:52:18;;;;;;;3.20;2.80;;;9.60;1.00;;;;;;5118410;28;20457;-42
2024/03/12 06:54:44;;;;;;;3.10;2.80;;;9.60;1.00;;;;;;5083792;28;20183;-41
2024/03/12 06:57:10;;;;;;;3.10;2.77;;;9.70;99.90;;;;;;5115880;28;20497;-40
2024/03/12 06:59:37;;;;;;;2.50;2.23;;;9.80;99.90;;;;;;5099956;28;20445;-40
2024/03/12 07:02:03;;;;;;;4.03;3.43;;;9.90;99.90;;;;;;5098795;28;20923;-42
2024/03/12 07:04:35;;;;;;;3.93;2.57;;;10.00;99.90;;;;;;5098142;28;20430;-41
2024/03/12 07:07:05;;;;;;;2.60;2.40;;;10.00;99.90;;;;;;5097647;28;20872;-43
2024/03/12 07:09:35;;;;;;;4.23;2.80;;;10.00;18.50;;;;;;5099221;28;20411;-42
2024/03/12 07:12:04;;;;;;;6.73;3.00;;;10.30;99.90;;;;;;5098105;28;20486;-41
2024/03/12 07:14:32;;;;;;;10.03;2.70;;;10.90;99.90;;;;;;5098712;28;20442;-39
2024/03/12 07:16:58;;;;;;;6.53;2.10;;;11.60;99.90;;;;;;5099098;28;20708;-40
2024/03/12 07:19:23;;;;;;;4.43;2.30;;;12.50;99.90;;;;;;5099515;28;20430;-41
2024/03/12 07:21:54;;;;;;;3.73;2.20;;;13.20;1.00;;;;;;5100161;28;20224;-39
2024/03/12 07:24:20;;;;;;;3.90;1.80;;;13.80;99.90;;;;;;5100331;28;20180;-40
2024/03/12 07:26:47;;;;;;;3.63;2.07;;;14.30;1.00;;;;;;5099868;28;20627;-41
2024/03/12 07:29:13;;;;;;;3.27;1.50;;;14.80;1.00;;;;;;5080635;28;20187;-43
2024/03/12 07:31:39;;;;;;;3.10;1.67;;;15.10;99.90;;;;;;5082185;28;20447;-42
2024/03/12 07:34:05;;;;;;;3.33;1.70;;;15.40;99.90;;;;;;5100540;28;20430;-42
2024/03/12 07:36:33;;;;;;;3.13;1.50;;;15.70;99.90;;;;;;5100446;28;20454;-40
2024/03/12 07:38:59;;;;;;;2.47;1.30;;;15.80;1.00;;;;;;5099653;28;20417;-41
2024/03/12 07:41:26;;;;;;;2.40;1.47;;;16.00;1.00;;;;;;5098674;28;20457;-43
2024/03/12 07:43:51;;;;;;;1.83;1.13;;;16.00;99.90;;;;;;5080655;28;20731;-40
2024/03/12 07:46:17;;;;;;;2.67;1.30;;;16.10;99.90;;;;;;5081130;28;20549;-41
2024/03/12 07:48:44;;;;;;;3.63;1.60;;;16.10;99.90;;;;;;5099588;28;20426;-42
2024/03/12 07:51:09;;;;;;;2.30;1.43;;;16.10;99.90;;;;;;5080732;28;20177;-41
2024/03/12 07:53:39;;;;;;;2.10;1.53;;;16.10;99.90;;;;;;5099323;28;20409;-41
2024/03/12 07:56:06;;;;;;;1.50;0.93;;;16.20;99.90;;;;;;5099855;28;20329;-43
2024/03/12 07:58:33;;;;;;;2.43;1.20;;;16.20;99.70;;;;;;5099193;28;20485;-44
2024/03/12 08:00:59;;;;;;;1.93;1.23;;;16.30;51.20;;;;;;5099012;28;20539;-40
2024/03/12 08:03:24;;;;;;;4.70;1.43;;;16.30;18.50;;;;;;5098941;28;20812;-42
2024/03/12 08:05:50;;;;;;;2.13;1.20;;;16.30;6.80;;;;;;5080457;28;20200;-42
2024/03/12 08:08:16;;;;;;;1.10;0.97;;;16.40;1.00;;;;;;5099236;28;20203;-44
2024/03/12 08:10:41;;;;;;;2.10;1.10;;;16.40;1.00;;;;;;5081362;28;20207;-42
2024/03/12 08:13:08;;;;;;;2.60;1.23;;;16.40;1.00;;;;;;5097548;28;20554;-44
2024/03/12 08:15:34;;;;;;;2.20;1.50;;;16.40;1.00;;;;;;5098190;28;20261;-41
2024/03/12 08:18:01;;;;;;;1.70;1.10;;;16.30;1.00;;;;;;5080478;28;20414;-42
2024/03/12 08:20:27;;;;;;;1.60;1.20;;;16.20;1.00;;;;;;5097787;28;20165;-44
2024/03/12 08:22:52;;;;;;;1.10;0.90;;;16.20;1.00;;;;;;5098701;28;20450;-42
2024/03/12 08:25:18;;;;;;;1.73;1.30;;;16.20;1.00;;;;;;5097619;28;20180;-41
2024/03/12 08:27:44;;;;;;;1.70;0.90;;;16.20;1.00;;;;;;5098225;28;20191;-40
2024/03/12 08:30:11;;;;;;;2.27;1.20;;;16.20;1.00;;;;;;5098336;28;20180;-43
2024/03/12 08:32:37;;;;;;;1.57;1.47;;;16.00;1.00;;;;;;5097775;28;20316;-42
2024/03/12 08:35:03;;;;;;;2.10;1.60;;;15.50;1.00;;;;;;5098374;28;20490;-41
2024/03/12 08:37:29;;;;;;;1.70;1.40;;;15.00;1.00;;;;;;5098845;28;20524;-43
2024/03/12 08:39:55;;;;;;;1.60;1.20;;;14.50;1.00;;;;;;5097541;28;20431;-41
2024/03/12 08:42:21;;;;;;;1.73;1.60;;;14.10;1.00;;;;;;5097719;28;20436;-42
2024/03/12 08:44:47;;;;;;;1.70;1.60;;;13.80;1.00;;;;;;5097296;28;20402;-41
2024/03/12 08:47:13;;;;;;;2.50;1.50;;;13.50;1.00;;;;;;5098174;28;20464;-41
2024/03/12 08:49:40;;;;;;;4.23;1.77;;;13.30;1.00;;;;;;5080256;28;20419;-44
2024/03/12 08:52:06;;;;;;;2.90;1.80;;;13.10;1.00;;;;;;5097215;28;21051;-43
2024/03/12 08:54:33;;;;;;;1.80;1.50;;;12.90;1.00;;;;;;5097502;28;20458;-44
2024/03/12 08:57:00;;;;;;;3.17;1.87;;;12.80;1.00;;;;;;5096948;28;20676;-43
2024/03/12 08:59:26;;;;;;;4.67;1.97;;;12.70;1.00;;;;;;5078388;28;20429;-42
2024/03/12 09:01:57;;;;;;;4.13;2.20;;;12.60;1.00;;;;;;5102385;28;20455;-42
2024/03/12 09:04:23;;;;;;;1.90;1.67;;;12.50;1.00;;;;;;5117212;28;20436;-42
2024/03/12 09:06:49;;;;;;;3.47;1.73;;;12.40;12.30;;;;;;5100640;28;20508;-41
2024/03/12 09:09:16;;;;;;;1.50;1.27;;;12.30;35.80;;;;;;5098837;28;20448;-42
2024/03/12 09:11:42;;;;;;;2.30;1.40;;;12.10;87.60;;;;;;5116071;28;20582;-43
2024/03/12 09:14:07;;;;;;;1.93;1.60;;;12.10;99.90;;;;;;5116096;28;20520;-42
2024/03/12 09:16:34;;;;;;;1.93;1.50;;;12.00;99.90;;;;;;5116910;28;20896;-41
2024/03/12 09:19:00;;;;;;;2.07;1.20;;;11.90;99.90;;;;;;5117246;28;20756;-42
2024/03/12 09:21:27;;;;;;;2.50;1.90;;;11.90;99.90;;;;;;5099438;28;20434;-41
2024/03/12 09:23:53;;;;;;;1.83;1.30;;;11.90;99.90;;;;;;5099998;28;20482;-40
2024/03/12 09:26:19;;;;;;;3.00;1.83;;;11.90;99.90;;;;;;5117312;28;20875;-42
2024/03/12 09:28:46;;;;;;;2.13;1.40;;;11.90;99.90;;;;;;5116131;28;20430;-43
2024/03/12 09:31:13;;;;;;;1.80;1.60;;;11.80;99.90;;;;;;5117651;28;20239;-43
2024/03/12 09:33:39;;;;;;;1.80;1.50;;;11.80;99.90;;;;;;5116685;28;20858;-42
2024/03/12 09:36:05;;;;;;;2.03;1.70;;;11.90;99.90;;;;;;5116171;28;20405;-40
2024/03/12 09:38:30;;;;;;;2.20;1.67;;;11.90;99.90;;;;;;5117701;28;20489;-41
2024/03/12 09:40:59;;;;;;;2.30;1.73;;;11.80;99.90;;;;;;5099455;28;20532;-42
2024/03/12 09:43:30;;;;;;;2.50;2.23;;;11.70;99.90;;;;;;5117639;28;20176;-41
2024/03/12 09:45:56;;;;;;;2.50;1.97;;;11.70;99.90;;;;;;5099566;28;20932;-41
2024/03/12 09:48:22;;;;;;;2.60;1.80;;;11.60;99.90;;;;;;5117825;28;20429;-41
2024/03/12 09:50:50;;;;;;;2.00;1.73;;;11.60;1.00;;;;;;5100042;28;20550;-41
2024/03/12 09:53:19;;;;;;;2.97;2.30;;;11.70;1.00;;;;;;5117513;28;20192;-43
2024/03/12 09:55:45;;;;;;;2.57;2.37;;;11.70;1.00;;;;;;5098379;28;20536;-46
2024/03/12 09:58:11;;;;;;;2.60;2.23;;;11.70;1.00;;;;;;5115122;28;20926;-40
2024/03/12 10:00:37;;;;;;;2.90;2.60;;;11.70;1.00;;;;;;5115988;28;20179;-44
2024/03/12 10:03:04;;;;;;;3.60;2.80;;;11.70;1.00;;;;;;5085681;28;20176;-40
2024/03/12 10:05:31;;;;;;;2.77;2.27;;;11.70;1.00;;;;;;5102981;28;20455;-41
2024/03/12 10:08:16;;;;;;;2.70;2.30;;;11.70;1.00;;;;;;5121104;28;20527;-42
2024/03/12 10:10:51;;;;;;;4.63;2.63;;;11.70;1.00;;;;;;5121441;28;20417;-41
2024/03/12 10:13:17;;;;;;;2.47;2.03;;;11.60;1.00;;;;;;5104209;28;20523;-45
2024/03/12 10:16:03;;;;;;;3.13;2.10;;;11.70;1.00;;;;;;5122511;28;20425;-43
2024/03/12 10:18:34;;;;;;;2.47;2.03;;;11.80;1.00;;;;;;5104407;28;20432;-42
2024/03/12 10:21:02;;;;;;;3.13;2.27;;;11.80;1.00;;;;;;5121879;28;20406;-43
2024/03/12 10:23:29;;;;;;;2.80;2.30;;;11.90;1.00;;;;;;5120075;28;20529;-41
2024/03/12 10:26:07;;;;;;;2.40;2.00;;;11.90;1.00;;;;;;5102968;28;20464;-41
2024/03/12 10:28:34;;;;;;;3.03;1.70;;;11.90;1.00;;;;;;5102887;28;20447;-41
2024/03/12 10:31:08;;;;;;;2.67;1.90;;;11.90;1.00;;;;;;5121858;28;20708;-44
2024/03/12 10:33:48;;;;;;;2.40;2.00;;;12.00;1.00;;;;;;5121449;28;20708;-42
2024/03/12 10:36:31;;;;;;;2.60;1.77;;;12.00;1.00;;;;;;5121420;28;20425;-43
2024/03/12 10:38:57;;;;;;;3.10;2.10;;;12.00;1.00;;;;;;5121497;28;20420;-43
2024/03/12 10:41:23;;;;;;;2.20;1.90;;;12.00;1.00;;;;;;5121341;28;20420;-41
2024/03/12 10:43:55;;;;;;;2.53;1.77;;;11.90;1.00;;;;;;5120575;28;20433;-41
2024/03/12 10:46:21;;;;;;;1.57;1.20;;;12.00;1.00;;;;;;5120451;28;20195;-42
2024/03/12 10:48:50;;;;;;;3.00;1.60;;;12.00;99.90;;;;;;5086621;28;20433;-42
2024/03/12 10:51:17;;;;;;;2.27;1.63;;;12.00;99.90;;;;;;5121761;28;20417;-42
2024/03/12 10:53:46;;;;;;;2.80;1.50;;;12.00;99.90;;;;;;5086198;28;20511;-42
2024/03/12 10:56:12;;;;;;;2.33;1.40;;;12.10;99.90;;;;;;5120691;28;20684;-41
2024/03/12 10:58:37;;;;;;;2.10;1.40;;;12.10;99.90;;;;;;5103163;28;20484;-42
2024/03/12 11:01:05;;;;;;;2.70;2.20;;;12.10;99.90;;;;;;5120654;28;20194;-43
2024/03/12 11:03:33;;;;;;;1.67;1.30;;;12.10;99.90;;;;;;5120497;28;20201;-42
2024/03/12 11:06:00;;;;;;;2.20;1.80;;;12.00;99.90;;;;;;5101975;28;20465;-41
2024/03/12 11:08:26;;;;;;;1.73;1.23;;;12.00;99.90;;;;;;5118690;28;20661;-42
2024/03/12 11:10:55;;;;;;;1.50;1.10;;;12.00;99.90;;;;;;5119644;28;20433;-43
2024/03/12 11:13:21;;;;;;;2.23;1.30;;;12.10;99.90;;;;;;5101798;28;20191;-41
2024/03/12 11:15:47;;;;;;;2.13;1.50;;;12.10;99.90;;;;;;5100561;28;20441;-41
2024/03/12 11:18:14;;;;;;;1.63;1.27;;;12.10;99.90;;;;;;5120447;28;20176;-42
2024/03/12 11:20:41;;;;;;;1.80;1.33;;;12.00;99.90;;;;;;5117782;28;20821;-42
2024/03/12 11:23:07;;;;;;;1.60;1.00;;;12.10;99.90;;;;;;5118631;28;20526;-41
2024/03/12 11:25:43;;;;;;;1.43;0.87;;;12.10;99.90;;;;;;5118131;28;20473;-42
2024/03/12 11:28:23;;;;;;;1.70;1.33;;;12.10;99.90;;;;;;5119592;28;20424;-41
2024/03/12 11:30:57;;;;;;;3.30;2.33;;;12.10;99.90;;;;;;5118228;28;20516;-42
2024/03/12 11:33:41;;;;;;;3.47;2.53;;;12.00;99.90;;;;;;5116619;28;20699;-45
2024/03/12 11:36:29;;;;;;;2.33;1.97;;;11.90;99.90;;;;;;5116791;28;20429;-41
2024/03/12 11:38:58;;;;;;;2.90;2.13;;;11.90;99.90;;;;;;5118846;28;20402;-41
2024/03/12 11:41:25;;;;;;;2.60;1.97;;;11.80;99.90;;;;;;5100628;28;21043;-40
2024/03/12 11:43:51;;;;;;;3.20;2.27;;;11.70;99.90;;;;;;5082120;28;20434;-41
2024/03/12 11:46:20;;;;;;;3.50;2.20;;;11.60;99.90;;;;;;5100464;28;20823;-51
2024/03/12 11:48:47;;;;;;;2.77;2.33;;;11.60;99.90;;;;;;5117843;28;20685;-41
2024/03/12 11:51:13;;;;;;;4.50;3.17;;;11.50;99.90;;;;;;5118822;28;20508;-42
2024/03/12 11:53:44;;;;;;;3.70;3.20;;;11.50;99.90;;;;;;5100443;28;20456;-40
2024/03/12 11:56:15;;;;;;;4.20;2.90;;;11.40;1.00;;;;;;5097218;28;20442;-43
2024/03/12 11:58:44;;;;;;;3.70;3.23;;;11.40;1.00;;;;;;5080490;28;20557;-43
2024/03/12 12:01:22;;;;;;;4.50;3.43;;;11.40;1.00;;;;;;5097446;28;20427;-44
2024/03/12 12:03:59;;;;;;;3.40;2.60;;;11.40;1.00;;;;;;5095281;28;20422;-42
2024/03/12 12:06:30;;;;;;;3.67;2.67;;;11.40;1.00;;;;;;5077731;28;20474;-42
2024/03/12 12:09:00;;;;;;;3.50;2.30;;;11.40;1.00;;;;;;5096490;28;20407;-42
2024/03/12 12:11:25;;;;;;;3.10;2.13;;;11.40;1.00;;;;;;5098265;28;20438;-42
2024/03/12 12:13:55;;;;;;;3.00;2.07;;;11.40;1.00;;;;;;5097682;28;20880;-42
2024/03/12 12:16:20;;;;;;;4.57;2.73;;;11.40;1.00;;;;;;5097994;28;20181;-41
2024/03/12 12:18:47;;;;;;;4.83;3.20;;;11.40;1.00;;;;;;5096786;28;20524;-41
2024/03/12 12:21:14;;;;;;;4.10;2.93;;;11.40;1.00;;;;;;5097613;28;20500;-41
2024/03/12 12:23:44;;;;;;;4.70;2.90;;;11.40;1.00;;;;;;5096287;28;20417;-41
2024/03/12 12:26:21;;;;;;;3.70;2.37;;;11.40;1.00;;;;;;5096574;28;20643;-41
2024/03/12 12:28:54;;;;;;;3.37;2.50;;;11.40;38.20;;;;;;5095826;28;20421;-42
2024/03/12 12:31:21;;;;;;;4.20;2.80;;;11.40;85.00;;;;;;5078565;28;20474;-41
2024/03/12 12:33:51;;;;;;;5.83;4.37;;;11.50;94.70;;;;;;5079893;28;20442;-42
2024/03/12 12:36:20;;;;;;;5.47;3.97;;;11.50;66.40;;;;;;5097533;28;20430;-43
2024/03/12 12:38:47;;;;;;;7.00;5.37;;;11.40;1.80;;;;;;5079048;28;20462;-42
2024/03/12 12:41:12;;;;;;;6.90;5.37;;;11.40;1.00;;;;;;5096669;28;20433;-42
2024/03/12 12:43:42;;;;;;;7.67;6.27;;;11.40;1.00;;;;;;5076416;28;20414;-41
2024/03/12 12:46:16;;;;;;;9.60;6.97;;;11.40;1.00;;;;;;5077077;28;20405;-41
2024/03/12 12:48:42;;;;;;;9.50;7.40;;;11.50;1.00;;;;;;5080051;28;20458;-42
2024/03/12 12:51:10;;;;;;;10.10;7.43;;;11.50;1.00;;;;;;5096824;28;20846;-44
2024/03/12 12:53:36;;;;;;;12.57;8.97;;;11.60;1.00;;;;;;5095605;28;20417;-42
2024/03/12 12:56:03;;;;;;;11.30;8.33;;;11.70;1.00;;;;;;5079095;28;20765;-41
2024/03/12 12:58:31;;;;;;;13.07;8.80;;;11.80;99.90;;;;;;5078219;28;20478;-43
2024/03/12 13:01:10;;;;;;;12.73;10.00;;;11.90;99.90;;;;;;5096050;28;20430;-41
2024/03/12 13:03:45;;;;;;;13.00;9.80;;;12.10;99.90;;;;;;5077939;28;20451;-44
2024/03/12 13:06:20;;;;;;;10.93;8.47;;;12.50;99.90;;;;;;5095855;28;20530;-41
2024/03/12 13:08:53;;;;;;;15.53;1.77;;;12.80;99.90;;;;;;5096467;28;20475;-46